CFTIW CYSF-CKK2
Flight info
| Callsign | CFTIW |
|---|---|
| Flight time | 3h 0m |
| Altitude | 9000 |
| Route | DCT |
| Aircraft | BE58/L-SDE3/1200 |
Departure
| Time | 2026-05-05 12:12 |
|---|---|
| Airport | Stony Rapids Airport (CYSF) |
Arrival
| Time | 2026-05-05 15:13 |
|---|---|
| Airport | St. Brieux Airport (CKK2) |
| Time | Latitude | Longitude | Altitude | Speed | Heading |
|---|---|---|---|---|---|
| 2026-05-05 12:04 | 59.25295 | -105.83785 | 790 ft | 0 kts | 343° |
| 2026-05-05 12:07 | 59.25299 | -105.83787 | 790 ft | 1 kts | 345° |
| 2026-05-05 12:08 | 59.25285 | -105.83780 | 790 ft | 2 kts | 345° |
| 2026-05-05 12:08 | 59.25271 | -105.83772 | 791 ft | 2 kts | 345° |
| 2026-05-05 12:08 | 59.25266 | -105.83770 | 791 ft | 0 kts | 345° |
| 2026-05-05 12:10 | 59.25256 | -105.83728 | 792 ft | 9 kts | 179° |
| 2026-05-05 12:10 | 59.25181 | -105.83731 | 793 ft | 14 kts | 171° |
| 2026-05-05 12:11 | 59.25118 | -105.83636 | 793 ft | 15 kts | 74° |
| 2026-05-05 12:11 | 59.25153 | -105.83428 | 793 ft | 17 kts | 73° |
| 2026-05-05 12:11 | 59.25184 | -105.83174 | 785 ft | 21 kts | 82° |
| 2026-05-05 12:11 | 59.25207 | -105.82932 | 781 ft | 11 kts | 81° |
| 2026-05-05 12:12 | 59.25228 | -105.82921 | 780 ft | 11 kts | 252° |
| 2026-05-05 12:12 | 59.25156 | -105.83384 | 793 ft | 72 kts | 253° |
| 2026-05-05 12:12 | 59.24939 | -105.84677 | 1033 ft | 111 kts | 255° |
| 2026-05-05 12:12 | 59.24685 | -105.86014 | 1742 ft | 104 kts | 249° |
| 2026-05-05 12:13 | 59.24156 | -105.86995 | 2455 ft | 110 kts | 197° |
| 2026-05-05 12:13 | 59.23414 | -105.86867 | 2977 ft | 114 kts | 152° |
| 2026-05-05 12:13 | 59.22663 | -105.86214 | 3466 ft | 122 kts | 146° |
| 2026-05-05 12:13 | 59.21888 | -105.85501 | 4061 ft | 124 kts | 150° |
| 2026-05-05 12:14 | 59.21095 | -105.84901 | 4667 ft | 123 kts | 155° |
| 2026-05-05 12:14 | 59.20285 | -105.84376 | 5288 ft | 123 kts | 156° |
| 2026-05-05 12:14 | 59.19435 | -105.83916 | 5802 ft | 129 kts | 160° |
| 2026-05-05 12:14 | 59.18560 | -105.83500 | 6348 ft | 130 kts | 164° |
| 2026-05-05 12:15 | 59.17665 | -105.83173 | 6874 ft | 131 kts | 165° |
| 2026-05-05 12:15 | 59.16771 | -105.82842 | 7371 ft | 131 kts | 164° |
| 2026-05-05 12:15 | 59.15869 | -105.82532 | 7850 ft | 133 kts | 171° |
| 2026-05-05 12:15 | 59.14943 | -105.82363 | 8332 ft | 134 kts | 172° |
| 2026-05-05 12:16 | 59.14009 | -105.82193 | 8814 ft | 136 kts | 173° |
| 2026-05-05 12:16 | 59.13011 | -105.82018 | 9035 ft | 160 kts | 174° |
| 2026-05-05 12:16 | 59.11806 | -105.81836 | 9048 ft | 185 kts | 174° |
| 2026-05-05 12:16 | 59.10478 | -105.81613 | 9032 ft | 197 kts | 173° |
| 2026-05-05 12:17 | 59.09084 | -105.81365 | 8996 ft | 203 kts | 173° |
| 2026-05-05 12:17 | 59.07671 | -105.81114 | 8994 ft | 205 kts | 174° |
| 2026-05-05 12:17 | 59.06730 | -105.80949 | 8996 ft | 205 kts | 174° |
| 2026-05-05 12:17 | 59.06107 | -105.80840 | 9001 ft | 205 kts | 173° |
| 2026-05-05 12:18 | 59.04681 | -105.80592 | 9001 ft | 206 kts | 174° |
| 2026-05-05 12:18 | 59.03258 | -105.80345 | 9001 ft | 206 kts | 173° |
| 2026-05-05 12:18 | 59.01849 | -105.80101 | 9004 ft | 206 kts | 173° |
| 2026-05-05 12:18 | 59.00405 | -105.79851 | 9007 ft | 206 kts | 174° |
| 2026-05-05 12:19 | 58.98994 | -105.79607 | 9009 ft | 206 kts | 173° |
| 2026-05-05 12:19 | 58.97563 | -105.79359 | 9007 ft | 206 kts | 174° |
| 2026-05-05 12:19 | 58.96135 | -105.79112 | 9009 ft | 206 kts | 173° |
| 2026-05-05 12:19 | 58.94705 | -105.78865 | 9011 ft | 206 kts | 173° |
| 2026-05-05 12:20 | 58.93275 | -105.78619 | 9014 ft | 206 kts | 173° |
| 2026-05-05 12:20 | 58.91845 | -105.78372 | 9012 ft | 206 kts | 173° |
| 2026-05-05 12:20 | 58.90414 | -105.78125 | 9017 ft | 206 kts | 173° |
| 2026-05-05 12:20 | 58.88986 | -105.77879 | 9018 ft | 206 kts | 173° |
| 2026-05-05 12:21 | 58.87555 | -105.77633 | 9013 ft | 207 kts | 173° |
| 2026-05-05 12:21 | 58.86123 | -105.77388 | 9014 ft | 206 kts | 173° |
| 2026-05-05 12:21 | 58.84691 | -105.77142 | 9014 ft | 206 kts | 174° |
| 2026-05-05 12:21 | 58.83262 | -105.76896 | 9011 ft | 206 kts | 173° |
| 2026-05-05 12:22 | 58.81832 | -105.76651 | 9009 ft | 207 kts | 174° |
| 2026-05-05 12:22 | 58.80401 | -105.76406 | 9007 ft | 207 kts | 173° |
| 2026-05-05 12:22 | 58.78968 | -105.76161 | 9008 ft | 206 kts | 173° |
| 2026-05-05 12:22 | 58.77538 | -105.75916 | 9010 ft | 207 kts | 173° |
| 2026-05-05 12:23 | 58.76107 | -105.75672 | 9009 ft | 207 kts | 173° |
| 2026-05-05 12:23 | 58.74676 | -105.75427 | 9010 ft | 206 kts | 173° |
| 2026-05-05 12:23 | 58.73241 | -105.75183 | 9009 ft | 207 kts | 173° |
| 2026-05-05 12:23 | 58.71809 | -105.74939 | 9009 ft | 207 kts | 173° |
| 2026-05-05 12:24 | 58.70378 | -105.74695 | 9013 ft | 207 kts | 173° |
| 2026-05-05 12:24 | 58.68946 | -105.74451 | 9008 ft | 207 kts | 173° |
| 2026-05-05 12:24 | 58.67511 | -105.74207 | 9008 ft | 207 kts | 173° |
| 2026-05-05 12:24 | 58.66078 | -105.73963 | 9007 ft | 207 kts | 173° |
| 2026-05-05 12:25 | 58.64643 | -105.73720 | 9007 ft | 207 kts | 173° |
| 2026-05-05 12:25 | 58.63228 | -105.73481 | 9008 ft | 207 kts | 173° |
| 2026-05-05 12:25 | 58.61776 | -105.73235 | 9008 ft | 207 kts | 173° |
| 2026-05-05 12:25 | 58.60368 | -105.73361 | 9009 ft | 207 kts | 201° |
| 2026-05-05 12:26 | 58.59137 | -105.74715 | 9012 ft | 204 kts | 216° |
| 2026-05-05 12:26 | 58.57857 | -105.75919 | 9003 ft | 207 kts | 200° |
| 2026-05-05 12:26 | 58.56438 | -105.76307 | 8994 ft | 207 kts | 177° |
| 2026-05-05 12:26 | 58.55006 | -105.76061 | 8996 ft | 207 kts | 172° |
| 2026-05-05 12:27 | 58.53572 | -105.75821 | 9000 ft | 207 kts | 174° |
| 2026-05-05 12:27 | 58.52132 | -105.75655 | 9000 ft | 207 kts | 175° |
| 2026-05-05 12:27 | 58.50693 | -105.75499 | 9000 ft | 207 kts | 175° |
| 2026-05-05 12:27 | 58.49253 | -105.75337 | 9004 ft | 207 kts | 175° |
| 2026-05-05 12:28 | 58.47812 | -105.75172 | 9001 ft | 207 kts | 175° |
| 2026-05-05 12:28 | 58.46370 | -105.75008 | 8997 ft | 208 kts | 175° |
| 2026-05-05 12:28 | 58.44928 | -105.74844 | 9000 ft | 207 kts | 175° |
| 2026-05-05 12:28 | 58.43488 | -105.74681 | 9000 ft | 207 kts | 175° |
| 2026-05-05 12:29 | 58.42047 | -105.74518 | 9000 ft | 207 kts | 175° |
| 2026-05-05 12:29 | 58.40605 | -105.74354 | 9001 ft | 208 kts | 175° |
| 2026-05-05 12:29 | 58.39165 | -105.74191 | 8994 ft | 207 kts | 175° |
| 2026-05-05 12:29 | 58.37720 | -105.74028 | 8997 ft | 208 kts | 175° |
| 2026-05-05 12:30 | 58.36278 | -105.73865 | 9000 ft | 208 kts | 175° |
| 2026-05-05 12:30 | 58.34853 | -105.73705 | 8998 ft | 208 kts | 175° |
| 2026-05-05 12:30 | 58.33411 | -105.73541 | 9000 ft | 208 kts | 175° |
| 2026-05-05 12:30 | 58.31968 | -105.73379 | 8998 ft | 208 kts | 175° |
| 2026-05-05 12:31 | 58.30523 | -105.73217 | 8999 ft | 208 kts | 175° |
| 2026-05-05 12:31 | 58.29079 | -105.73053 | 8994 ft | 208 kts | 175° |
| 2026-05-05 12:31 | 58.27639 | -105.72892 | 8995 ft | 208 kts | 175° |
| 2026-05-05 12:31 | 58.26195 | -105.72730 | 8993 ft | 208 kts | 175° |
| 2026-05-05 12:32 | 58.24752 | -105.72568 | 8996 ft | 208 kts | 175° |
| 2026-05-05 12:32 | 58.23309 | -105.72406 | 8996 ft | 208 kts | 175° |
| 2026-05-05 12:32 | 58.21865 | -105.72244 | 8994 ft | 208 kts | 175° |
| 2026-05-05 12:32 | 58.20419 | -105.72082 | 8994 ft | 208 kts | 175° |
| 2026-05-05 12:33 | 58.18975 | -105.71921 | 8996 ft | 208 kts | 175° |
| 2026-05-05 12:33 | 58.17530 | -105.71759 | 8994 ft | 208 kts | 175° |
| 2026-05-05 12:33 | 58.16572 | -105.71652 | 8995 ft | 208 kts | 175° |
| 2026-05-05 12:33 | 58.14641 | -105.71437 | 8995 ft | 208 kts | 175° |
| 2026-05-05 12:34 | 58.13215 | -105.71277 | 8996 ft | 208 kts | 175° |
| 2026-05-05 12:34 | 58.11768 | -105.71116 | 8992 ft | 208 kts | 175° |
| 2026-05-05 12:34 | 58.10325 | -105.70956 | 8991 ft | 208 kts | 175° |
| 2026-05-05 12:34 | 58.08879 | -105.70794 | 8992 ft | 208 kts | 175° |
| 2026-05-05 12:35 | 58.07899 | -105.70686 | 8992 ft | 208 kts | 175° |
| 2026-05-05 12:35 | 58.06455 | -105.70525 | 8990 ft | 208 kts | 175° |
| 2026-05-05 12:35 | 58.05007 | -105.70364 | 8989 ft | 208 kts | 175° |
| 2026-05-05 12:35 | 58.03576 | -105.70206 | 8989 ft | 208 kts | 175° |
| 2026-05-05 12:36 | 58.02131 | -105.70046 | 8990 ft | 208 kts | 175° |
| 2026-05-05 12:36 | 58.00684 | -105.69886 | 8989 ft | 208 kts | 175° |
| 2026-05-05 12:36 | 57.99235 | -105.69726 | 8986 ft | 208 kts | 175° |
| 2026-05-05 12:36 | 57.97787 | -105.69565 | 8988 ft | 208 kts | 175° |
| 2026-05-05 12:37 | 57.96342 | -105.69406 | 8987 ft | 208 kts | 175° |
| 2026-05-05 12:37 | 57.94896 | -105.69247 | 8984 ft | 208 kts | 175° |
| 2026-05-05 12:37 | 57.93448 | -105.69087 | 8986 ft | 208 kts | 175° |
| 2026-05-05 12:37 | 57.91999 | -105.68927 | 8985 ft | 208 kts | 175° |
| 2026-05-05 12:38 | 57.90559 | -105.68769 | 8969 ft | 205 kts | 175° |
| 2026-05-05 12:38 | 57.89136 | -105.68615 | 8618 ft | 207 kts | 175° |
| 2026-05-05 12:38 | 57.87702 | -105.68457 | 8352 ft | 205 kts | 175° |
| 2026-05-05 12:38 | 57.86280 | -105.68299 | 8090 ft | 205 kts | 175° |
| 2026-05-05 12:39 | 57.84861 | -105.68142 | 7839 ft | 204 kts | 175° |
| 2026-05-05 12:39 | 57.83447 | -105.67987 | 7597 ft | 203 kts | 175° |
| 2026-05-05 12:39 | 57.82041 | -105.67835 | 7342 ft | 202 kts | 175° |
| 2026-05-05 12:39 | 57.80659 | -105.67683 | 7115 ft | 201 kts | 175° |
| 2026-05-05 12:40 | 57.79261 | -105.67530 | 6890 ft | 201 kts | 175° |
| 2026-05-05 12:40 | 57.77870 | -105.67379 | 6679 ft | 200 kts | 175° |
| 2026-05-05 12:40 | 57.76480 | -105.67226 | 6464 ft | 199 kts | 175° |
| 2026-05-05 12:40 | 57.75093 | -105.67073 | 6251 ft | 199 kts | 175° |
| 2026-05-05 12:41 | 57.73713 | -105.66995 | 6056 ft | 198 kts | 180° |
| 2026-05-05 12:41 | 57.72341 | -105.67215 | 5876 ft | 198 kts | 188° |
| 2026-05-05 12:41 | 57.70980 | -105.67593 | 5692 ft | 197 kts | 188° |
| 2026-05-05 12:41 | 57.69629 | -105.67978 | 5509 ft | 196 kts | 188° |
| 2026-05-05 12:42 | 57.68280 | -105.68358 | 5340 ft | 195 kts | 188° |
| 2026-05-05 12:42 | 57.66937 | -105.68738 | 5194 ft | 195 kts | 189° |
| 2026-05-05 12:42 | 57.65594 | -105.69124 | 5031 ft | 195 kts | 189° |
| 2026-05-05 12:42 | 57.64258 | -105.69505 | 4878 ft | 194 kts | 188° |
| 2026-05-05 12:43 | 57.62927 | -105.69883 | 4716 ft | 193 kts | 189° |
| 2026-05-05 12:43 | 57.61599 | -105.70256 | 4562 ft | 193 kts | 188° |
| 2026-05-05 12:43 | 57.60280 | -105.70620 | 4412 ft | 191 kts | 189° |
| 2026-05-05 12:43 | 57.58965 | -105.70976 | 4267 ft | 191 kts | 189° |
| 2026-05-05 12:44 | 57.57672 | -105.71330 | 4124 ft | 190 kts | 189° |
| 2026-05-05 12:44 | 57.56366 | -105.71681 | 3976 ft | 189 kts | 188° |
| 2026-05-05 12:44 | 57.55065 | -105.72037 | 3854 ft | 189 kts | 189° |
| 2026-05-05 12:44 | 57.53768 | -105.72393 | 3745 ft | 188 kts | 189° |
| 2026-05-05 12:45 | 57.52473 | -105.72765 | 3587 ft | 188 kts | 189° |
| 2026-05-05 12:45 | 57.51182 | -105.73149 | 3504 ft | 187 kts | 189° |
| 2026-05-05 12:45 | 57.49896 | -105.73526 | 3389 ft | 186 kts | 189° |
| 2026-05-05 12:45 | 57.48621 | -105.73901 | 3177 ft | 185 kts | 190° |
| 2026-05-05 12:46 | 57.47352 | -105.74263 | 2979 ft | 183 kts | 190° |
| 2026-05-05 12:46 | 57.46111 | -105.74603 | 2908 ft | 176 kts | 189° |
| 2026-05-05 12:46 | 57.44917 | -105.74918 | 2903 ft | 171 kts | 190° |
| 2026-05-05 12:46 | 57.43744 | -105.75229 | 2877 ft | 170 kts | 189° |
| 2026-05-05 12:47 | 57.42584 | -105.75540 | 2873 ft | 168 kts | 189° |
| 2026-05-05 12:47 | 57.41425 | -105.75850 | 2878 ft | 169 kts | 189° |
| 2026-05-05 12:47 | 57.40266 | -105.76172 | 2871 ft | 167 kts | 190° |
| 2026-05-05 12:47 | 57.39120 | -105.76537 | 2869 ft | 166 kts | 192° |
| 2026-05-05 12:48 | 57.37989 | -105.76907 | 2872 ft | 165 kts | 192° |
| 2026-05-05 12:48 | 57.36858 | -105.77280 | 2863 ft | 163 kts | 192° |
| 2026-05-05 12:48 | 57.35769 | -105.77629 | 2857 ft | 156 kts | 192° |
| 2026-05-05 12:48 | 57.35082 | -105.77847 | 2857 ft | 151 kts | 192° |
| 2026-05-05 12:49 | 57.34515 | -105.78021 | 2849 ft | 151 kts | 191° |
| 2026-05-05 12:49 | 57.33501 | -105.78334 | 2847 ft | 149 kts | 192° |
| 2026-05-05 12:49 | 57.32479 | -105.78659 | 2860 ft | 150 kts | 191° |
| 2026-05-05 12:49 | 57.31421 | -105.78989 | 2857 ft | 157 kts | 192° |
| 2026-05-05 12:50 | 57.30335 | -105.79336 | 2858 ft | 161 kts | 192° |
| 2026-05-05 12:50 | 57.29231 | -105.79692 | 2863 ft | 161 kts | 192° |
| 2026-05-05 12:50 | 57.28128 | -105.80042 | 2857 ft | 161 kts | 192° |
| 2026-05-05 12:50 | 57.27032 | -105.80389 | 2853 ft | 156 kts | 192° |
| 2026-05-05 12:51 | 57.25983 | -105.80724 | 2845 ft | 151 kts | 192° |
| 2026-05-05 12:51 | 57.24949 | -105.81048 | 2839 ft | 150 kts | 192° |
| 2026-05-05 12:51 | 57.23925 | -105.81371 | 2834 ft | 147 kts | 192° |
| 2026-05-05 12:51 | 57.22927 | -105.81696 | 2851 ft | 144 kts | 192° |
| 2026-05-05 12:52 | 57.21965 | -105.81696 | 2851 ft | 134 kts | 153° |
| 2026-05-05 12:52 | 57.21276 | -105.80699 | 2844 ft | 122 kts | 133° |
| 2026-05-05 12:52 | 57.20638 | -105.79729 | 2842 ft | 117 kts | 134° |
| 2026-05-05 12:52 | 57.20016 | -105.78788 | 2836 ft | 115 kts | 134° |
| 2026-05-05 12:53 | 57.19435 | -105.77725 | 2635 ft | 118 kts | 111° |
| 2026-05-05 12:53 | 57.19473 | -105.76406 | 2560 ft | 99 kts | 52° |
| 2026-05-05 12:53 | 57.19823 | -105.75362 | 2556 ft | 95 kts | 51° |
| 2026-05-05 12:53 | 57.20167 | -105.74322 | 2549 ft | 95 kts | 51° |
| 2026-05-05 12:54 | 57.20752 | -105.72128 | 2541 ft | 96 kts | 60° |
| 2026-05-05 12:54 | 57.21063 | -105.71061 | 2540 ft | 93 kts | 43° |
| 2026-05-05 12:54 | 57.21483 | -105.70165 | 2542 ft | 93 kts | 45° |
| 2026-05-05 12:55 | 57.21882 | -105.69235 | 2535 ft | 92 kts | 45° |
| 2026-05-05 12:55 | 57.22262 | -105.68371 | 2516 ft | 77 kts | 42° |
| 2026-05-05 12:55 | 57.22616 | -105.67682 | 2389 ft | 76 kts | 36° |
| 2026-05-05 12:55 | 57.23020 | -105.67029 | 2335 ft | 80 kts | 43° |
| 2026-05-05 12:56 | 57.23423 | -105.66310 | 2320 ft | 82 kts | 38° |
| 2026-05-05 12:56 | 57.23854 | -105.65610 | 2183 ft | 84 kts | 36° |
| 2026-05-05 12:56 | 57.24311 | -105.64940 | 2028 ft | 82 kts | 31° |
| 2026-05-05 12:56 | 57.24658 | -105.64161 | 1997 ft | 80 kts | 67° |
| 2026-05-05 12:57 | 57.24841 | -105.63164 | 1877 ft | 83 kts | 49° |
| 2026-05-05 12:57 | 57.25239 | -105.62417 | 1726 ft | 80 kts | 37° |
| 2026-05-05 12:57 | 57.25593 | -105.61804 | 1680 ft | 58 kts | 31° |
| 2026-05-05 12:57 | 57.25764 | -105.61477 | 1678 ft | 19 kts | 29° |
| 2026-05-05 12:58 | 57.25745 | -105.61548 | 1682 ft | 22 kts | 226° |
| 2026-05-05 12:58 | 57.25646 | -105.61739 | 1680 ft | 21 kts | 216° |
| 2026-05-05 12:58 | 57.25521 | -105.61947 | 1681 ft | 21 kts | 225° |
| 2026-05-05 12:58 | 57.25458 | -105.62114 | 1683 ft | 12 kts | 290° |
| 2026-05-05 12:59 | 57.25506 | -105.62132 | 1683 ft | 8 kts | 19° |
| 2026-05-05 12:59 | 57.25551 | -105.62082 | 1683 ft | 0 kts | 110° |
| 2026-05-05 12:59 | 57.25540 | -105.62059 | 1683 ft | 1 kts | 131° |
| 2026-05-05 13:00 | 57.25539 | -105.62056 | 1688 ft | 0 kts | 130° |
| 2026-05-05 13:38 | 57.25542 | -105.62063 | 1683 ft | 3 kts | 130° |
| 2026-05-05 13:38 | 57.25549 | -105.62080 | 1686 ft | 0 kts | 130° |
| 2026-05-05 13:43 | 57.25519 | -105.62097 | 1685 ft | 10 kts | 213° |
| 2026-05-05 13:43 | 57.25460 | -105.62115 | 1683 ft | 10 kts | 147° |
| 2026-05-05 13:43 | 57.25379 | -105.62163 | 1685 ft | 18 kts | 225° |
| 2026-05-05 13:44 | 57.25272 | -105.62381 | 1686 ft | 25 kts | 223° |
| 2026-05-05 13:44 | 57.25145 | -105.62620 | 1685 ft | 14 kts | 226° |
| 2026-05-05 13:44 | 57.25127 | -105.62606 | 1684 ft | 9 kts | 40° |
| 2026-05-05 13:44 | 57.25192 | -105.62519 | 1688 ft | 18 kts | 42° |
| 2026-05-05 13:45 | 57.25484 | -105.62011 | 1726 ft | 96 kts | 48° |
| 2026-05-05 13:45 | 57.25884 | -105.60997 | 2296 ft | 107 kts | 54° |
| 2026-05-05 13:45 | 57.26258 | -105.59838 | 3327 ft | 104 kts | 62° |
| 2026-05-05 13:45 | 57.26042 | -105.58406 | 3894 ft | 147 kts | 140° |
| 2026-05-05 13:46 | 57.25030 | -105.58314 | 4516 ft | 154 kts | 216° |
| 2026-05-05 13:46 | 57.24201 | -105.59446 | 5318 ft | 136 kts | 208° |
| 2026-05-05 13:46 | 57.23298 | -105.59816 | 6001 ft | 141 kts | 180° |
| 2026-05-05 13:46 | 57.22284 | -105.60038 | 6531 ft | 148 kts | 189° |
| 2026-05-05 13:47 | 57.21267 | -105.60330 | 7083 ft | 146 kts | 188° |
| 2026-05-05 13:47 | 57.20276 | -105.60592 | 7655 ft | 141 kts | 187° |
| 2026-05-05 13:47 | 57.19323 | -105.60635 | 8242 ft | 133 kts | 166° |
| 2026-05-05 13:47 | 57.18432 | -105.60412 | 8831 ft | 127 kts | 169° |
| 2026-05-05 13:48 | 57.17467 | -105.60229 | 9011 ft | 159 kts | 171° |
| 2026-05-05 13:48 | 57.16261 | -105.60040 | 9026 ft | 186 kts | 172° |
| 2026-05-05 13:48 | 57.14924 | -105.59808 | 9031 ft | 199 kts | 172° |
| 2026-05-05 13:48 | 57.13520 | -105.59546 | 9030 ft | 205 kts | 171° |
| 2026-05-05 13:49 | 57.12090 | -105.59281 | 9035 ft | 207 kts | 172° |
| 2026-05-05 13:49 | 57.10646 | -105.59017 | 9042 ft | 208 kts | 172° |
| 2026-05-05 13:49 | 57.09209 | -105.58756 | 9047 ft | 206 kts | 172° |
| 2026-05-05 13:49 | 57.08855 | -105.58691 | 9050 ft | 206 kts | 172° |
| 2026-05-05 13:50 | 57.07431 | -105.58433 | 9055 ft | 205 kts | 172° |
| 2026-05-05 13:50 | 57.06012 | -105.58175 | 9059 ft | 205 kts | 172° |
| 2026-05-05 13:50 | 57.04612 | -105.57919 | 9068 ft | 205 kts | 172° |
| 2026-05-05 13:50 | 57.03193 | -105.57664 | 9074 ft | 204 kts | 172° |
| 2026-05-05 13:51 | 57.01779 | -105.57408 | 9078 ft | 204 kts | 172° |
| 2026-05-05 13:51 | 57.00373 | -105.57154 | 9083 ft | 203 kts | 172° |
| 2026-05-05 13:51 | 56.98965 | -105.56899 | 9090 ft | 203 kts | 172° |
| 2026-05-05 13:51 | 56.97559 | -105.56646 | 9096 ft | 203 kts | 172° |
| 2026-05-05 13:52 | 56.96152 | -105.56393 | 9105 ft | 203 kts | 172° |
| 2026-05-05 13:52 | 56.94746 | -105.56137 | 9109 ft | 203 kts | 172° |
| 2026-05-05 13:52 | 56.93339 | -105.55886 | 9116 ft | 203 kts | 172° |
| 2026-05-05 13:52 | 56.91934 | -105.55633 | 9119 ft | 203 kts | 172° |
| 2026-05-05 13:53 | 56.90527 | -105.55381 | 9127 ft | 203 kts | 172° |
| 2026-05-05 13:53 | 56.89123 | -105.55128 | 9131 ft | 203 kts | 172° |
| 2026-05-05 13:53 | 56.87715 | -105.54875 | 9131 ft | 203 kts | 172° |
| 2026-05-05 13:53 | 56.86310 | -105.54623 | 9131 ft | 203 kts | 172° |
| 2026-05-05 13:54 | 56.84905 | -105.54371 | 9130 ft | 203 kts | 172° |
| 2026-05-05 13:54 | 56.83502 | -105.54121 | 9128 ft | 203 kts | 172° |
| 2026-05-05 13:54 | 56.82095 | -105.53868 | 9135 ft | 203 kts | 172° |
| 2026-05-05 13:54 | 56.80686 | -105.53617 | 9136 ft | 204 kts | 172° |
| 2026-05-05 13:55 | 56.79274 | -105.53365 | 9132 ft | 203 kts | 172° |
| 2026-05-05 13:55 | 56.77867 | -105.53114 | 9131 ft | 203 kts | 172° |
| 2026-05-05 13:55 | 56.76476 | -105.52866 | 9132 ft | 204 kts | 172° |
| 2026-05-05 13:55 | 56.75068 | -105.52614 | 9131 ft | 203 kts | 172° |
| 2026-05-05 13:56 | 56.73660 | -105.52363 | 9130 ft | 204 kts | 172° |
| 2026-05-05 13:56 | 56.72250 | -105.52112 | 9131 ft | 203 kts | 172° |
| 2026-05-05 13:56 | 56.70843 | -105.51863 | 9132 ft | 203 kts | 172° |
| 2026-05-05 13:56 | 56.69435 | -105.51611 | 9131 ft | 203 kts | 172° |
| 2026-05-05 13:57 | 56.68028 | -105.51362 | 9133 ft | 203 kts | 172° |
| 2026-05-05 13:57 | 56.66624 | -105.51115 | 9135 ft | 203 kts | 172° |
| 2026-05-05 13:57 | 56.65219 | -105.50864 | 9130 ft | 203 kts | 172° |
| 2026-05-05 13:57 | 56.63816 | -105.50615 | 9135 ft | 202 kts | 172° |
| 2026-05-05 13:58 | 56.62408 | -105.50367 | 9133 ft | 203 kts | 172° |
| 2026-05-05 13:58 | 56.61005 | -105.50119 | 9126 ft | 203 kts | 172° |
| 2026-05-05 13:58 | 56.59601 | -105.49868 | 9129 ft | 203 kts | 172° |
| 2026-05-05 13:58 | 56.58197 | -105.49622 | 9125 ft | 203 kts | 172° |
| 2026-05-05 13:59 | 56.55384 | -105.49128 | 9130 ft | 203 kts | 172° |
| 2026-05-05 13:59 | 56.53993 | -105.48877 | 9127 ft | 204 kts | 172° |
| 2026-05-05 14:00 | 56.51180 | -105.48386 | 9133 ft | 203 kts | 172° |
| 2026-05-05 14:00 | 56.50228 | -105.48219 | 9131 ft | 203 kts | 172° |
| 2026-05-05 14:00 | 56.48370 | -105.47891 | 9133 ft | 203 kts | 172° |
| 2026-05-05 14:00 | 56.46965 | -105.47644 | 9129 ft | 203 kts | 172° |
| 2026-05-05 14:01 | 56.45563 | -105.47399 | 9127 ft | 203 kts | 172° |
| 2026-05-05 14:01 | 56.44159 | -105.47151 | 9124 ft | 203 kts | 172° |
| 2026-05-05 14:01 | 56.42757 | -105.46906 | 9129 ft | 203 kts | 172° |
| 2026-05-05 14:01 | 56.41351 | -105.46661 | 9128 ft | 203 kts | 172° |
| 2026-05-05 14:02 | 56.39945 | -105.46416 | 9124 ft | 203 kts | 172° |
| 2026-05-05 14:02 | 56.38543 | -105.46170 | 9120 ft | 203 kts | 172° |
| 2026-05-05 14:02 | 56.37137 | -105.45925 | 9121 ft | 203 kts | 172° |
| 2026-05-05 14:02 | 56.35732 | -105.45678 | 9117 ft | 203 kts | 172° |
| 2026-05-05 14:03 | 56.34324 | -105.45432 | 9121 ft | 203 kts | 172° |
| 2026-05-05 14:03 | 56.32937 | -105.45192 | 9126 ft | 203 kts | 172° |
| 2026-05-05 14:03 | 56.31531 | -105.44948 | 9123 ft | 203 kts | 172° |
| 2026-05-05 14:03 | 56.30127 | -105.44702 | 9122 ft | 202 kts | 172° |
| 2026-05-05 14:04 | 56.28724 | -105.44458 | 9119 ft | 202 kts | 172° |
| 2026-05-05 14:04 | 56.27324 | -105.44215 | 9118 ft | 202 kts | 172° |
| 2026-05-05 14:04 | 56.25919 | -105.43971 | 9119 ft | 202 kts | 172° |
| 2026-05-05 14:04 | 56.24520 | -105.43729 | 9119 ft | 202 kts | 172° |
| 2026-05-05 14:05 | 56.23116 | -105.43485 | 9116 ft | 203 kts | 172° |
| 2026-05-05 14:05 | 56.21714 | -105.43242 | 9118 ft | 202 kts | 172° |
| 2026-05-05 14:05 | 56.20312 | -105.43000 | 9120 ft | 202 kts | 172° |
| 2026-05-05 14:05 | 56.18907 | -105.42756 | 9113 ft | 203 kts | 172° |
| 2026-05-05 14:06 | 56.17503 | -105.42513 | 9117 ft | 203 kts | 172° |
| 2026-05-05 14:06 | 56.16101 | -105.42270 | 9114 ft | 202 kts | 172° |
| 2026-05-05 14:06 | 56.14698 | -105.42029 | 9116 ft | 203 kts | 172° |
| 2026-05-05 14:06 | 56.13296 | -105.41786 | 9115 ft | 202 kts | 172° |
| 2026-05-05 14:07 | 56.11895 | -105.41545 | 9116 ft | 202 kts | 173° |
| 2026-05-05 14:07 | 56.10493 | -105.41301 | 9116 ft | 202 kts | 173° |
| 2026-05-05 14:07 | 56.09111 | -105.41064 | 9114 ft | 203 kts | 173° |
| 2026-05-05 14:07 | 56.07687 | -105.40823 | 9115 ft | 203 kts | 173° |
| 2026-05-05 14:08 | 56.06305 | -105.40585 | 9114 ft | 202 kts | 173° |
| 2026-05-05 14:08 | 56.04904 | -105.40345 | 9111 ft | 202 kts | 172° |
| 2026-05-05 14:08 | 56.03505 | -105.40102 | 9107 ft | 202 kts | 173° |
| 2026-05-05 14:08 | 56.02105 | -105.39862 | 9109 ft | 202 kts | 173° |
| 2026-05-05 14:09 | 56.00707 | -105.39623 | 9109 ft | 202 kts | 173° |
| 2026-05-05 14:09 | 55.99306 | -105.39384 | 9111 ft | 202 kts | 173° |
| 2026-05-05 14:09 | 55.97901 | -105.39144 | 9113 ft | 202 kts | 173° |
| 2026-05-05 14:09 | 55.96498 | -105.38903 | 9114 ft | 202 kts | 173° |
| 2026-05-05 14:10 | 55.95095 | -105.38662 | 9113 ft | 202 kts | 173° |
| 2026-05-05 14:10 | 55.93697 | -105.38424 | 9106 ft | 202 kts | 173° |
| 2026-05-05 14:10 | 55.92295 | -105.38183 | 9114 ft | 203 kts | 173° |
| 2026-05-05 14:10 | 55.90890 | -105.37946 | 9111 ft | 203 kts | 173° |
| 2026-05-05 14:11 | 55.89484 | -105.37707 | 9109 ft | 204 kts | 173° |
| 2026-05-05 14:11 | 55.88080 | -105.37467 | 9107 ft | 203 kts | 173° |
| 2026-05-05 14:11 | 55.86677 | -105.37229 | 9105 ft | 202 kts | 173° |
| 2026-05-05 14:11 | 55.85275 | -105.36991 | 9102 ft | 203 kts | 173° |
| 2026-05-05 14:12 | 55.83872 | -105.36753 | 9104 ft | 203 kts | 173° |
| 2026-05-05 14:12 | 55.82470 | -105.36514 | 9100 ft | 202 kts | 173° |
| 2026-05-05 14:12 | 55.81072 | -105.36275 | 9103 ft | 202 kts | 173° |
| 2026-05-05 14:12 | 55.79670 | -105.36038 | 9100 ft | 202 kts | 173° |
| 2026-05-05 14:13 | 55.78272 | -105.35802 | 9105 ft | 202 kts | 173° |
| 2026-05-05 14:13 | 55.76869 | -105.35565 | 9106 ft | 203 kts | 173° |
| 2026-05-05 14:13 | 55.75468 | -105.35329 | 9099 ft | 203 kts | 173° |
| 2026-05-05 14:13 | 55.74065 | -105.35086 | 9106 ft | 202 kts | 173° |
| 2026-05-05 14:14 | 55.72683 | -105.34857 | 9102 ft | 202 kts | 173° |
| 2026-05-05 14:14 | 55.71283 | -105.34622 | 9104 ft | 202 kts | 173° |
| 2026-05-05 14:14 | 55.69883 | -105.34385 | 9098 ft | 202 kts | 173° |
| 2026-05-05 14:14 | 55.68483 | -105.34148 | 9100 ft | 202 kts | 173° |
| 2026-05-05 14:15 | 55.67080 | -105.33914 | 9101 ft | 203 kts | 173° |
| 2026-05-05 14:15 | 55.65676 | -105.33675 | 9099 ft | 203 kts | 173° |
| 2026-05-05 14:15 | 55.64727 | -105.33515 | 9097 ft | 203 kts | 173° |
| 2026-05-05 14:15 | 55.62873 | -105.33205 | 9095 ft | 202 kts | 173° |
| 2026-05-05 14:16 | 55.61926 | -105.33046 | 9099 ft | 202 kts | 173° |
| 2026-05-05 14:16 | 55.60523 | -105.32809 | 9094 ft | 202 kts | 173° |
| 2026-05-05 14:16 | 55.59123 | -105.32576 | 9097 ft | 202 kts | 173° |
| 2026-05-05 14:16 | 55.57722 | -105.32340 | 9091 ft | 202 kts | 173° |
| 2026-05-05 14:17 | 55.56321 | -105.32105 | 9094 ft | 203 kts | 173° |
| 2026-05-05 14:17 | 55.54916 | -105.31871 | 9093 ft | 203 kts | 173° |
| 2026-05-05 14:17 | 55.53509 | -105.31634 | 9096 ft | 203 kts | 173° |
| 2026-05-05 14:17 | 55.52110 | -105.31401 | 9094 ft | 202 kts | 173° |
| 2026-05-05 14:18 | 55.50708 | -105.31168 | 9094 ft | 202 kts | 173° |
| 2026-05-05 14:18 | 55.49310 | -105.30935 | 9090 ft | 202 kts | 173° |
| 2026-05-05 14:18 | 55.47928 | -105.30704 | 9082 ft | 202 kts | 173° |
| 2026-05-05 14:18 | 55.46528 | -105.30470 | 9078 ft | 202 kts | 173° |
| 2026-05-05 14:19 | 55.45128 | -105.30237 | 9080 ft | 202 kts | 173° |
| 2026-05-05 14:19 | 55.43729 | -105.30004 | 9064 ft | 202 kts | 173° |
| 2026-05-05 14:19 | 55.42327 | -105.29770 | 9064 ft | 202 kts | 173° |
| 2026-05-05 14:19 | 55.40926 | -105.29538 | 9071 ft | 202 kts | 173° |
| 2026-05-05 14:20 | 55.39526 | -105.29306 | 9058 ft | 202 kts | 173° |
| 2026-05-05 14:20 | 55.38125 | -105.29073 | 9055 ft | 202 kts | 173° |
| 2026-05-05 14:20 | 55.36725 | -105.28840 | 9051 ft | 202 kts | 173° |
| 2026-05-05 14:20 | 55.35323 | -105.28609 | 9048 ft | 202 kts | 173° |
| 2026-05-05 14:21 | 55.33924 | -105.28377 | 9039 ft | 202 kts | 173° |
| 2026-05-05 14:21 | 55.32524 | -105.28145 | 9036 ft | 202 kts | 173° |
| 2026-05-05 14:21 | 55.31125 | -105.27914 | 9034 ft | 202 kts | 173° |
| 2026-05-05 14:21 | 55.29723 | -105.27682 | 9030 ft | 202 kts | 173° |
| 2026-05-05 14:22 | 55.28323 | -105.27450 | 9028 ft | 202 kts | 173° |
| 2026-05-05 14:22 | 55.26922 | -105.27220 | 9024 ft | 202 kts | 173° |
| 2026-05-05 14:22 | 55.25521 | -105.26989 | 9012 ft | 202 kts | 173° |
| 2026-05-05 14:22 | 55.24120 | -105.26757 | 9017 ft | 202 kts | 173° |
| 2026-05-05 14:23 | 55.22720 | -105.26528 | 9011 ft | 202 kts | 173° |
| 2026-05-05 14:23 | 55.21320 | -105.26297 | 9016 ft | 202 kts | 173° |
| 2026-05-05 14:23 | 55.19922 | -105.26066 | 9019 ft | 202 kts | 173° |
| 2026-05-05 14:23 | 55.18520 | -105.25837 | 9014 ft | 202 kts | 173° |
| 2026-05-05 14:24 | 55.17137 | -105.25610 | 9013 ft | 202 kts | 173° |
| 2026-05-05 14:24 | 55.15737 | -105.25380 | 9018 ft | 202 kts | 173° |
| 2026-05-05 14:24 | 55.14337 | -105.25150 | 9015 ft | 202 kts | 173° |
| 2026-05-05 14:24 | 55.12934 | -105.24920 | 9017 ft | 202 kts | 173° |
| 2026-05-05 14:25 | 55.11533 | -105.24691 | 9018 ft | 202 kts | 173° |
| 2026-05-05 14:25 | 55.10133 | -105.24462 | 9018 ft | 202 kts | 173° |
| 2026-05-05 14:25 | 55.08734 | -105.24233 | 9018 ft | 202 kts | 173° |
| 2026-05-05 14:25 | 55.07330 | -105.24004 | 9018 ft | 202 kts | 173° |
| 2026-05-05 14:26 | 55.05927 | -105.23774 | 9018 ft | 202 kts | 173° |
| 2026-05-05 14:26 | 55.04529 | -105.23547 | 9017 ft | 202 kts | 173° |
| 2026-05-05 14:26 | 55.03126 | -105.23317 | 9025 ft | 202 kts | 173° |
| 2026-05-05 14:26 | 55.01724 | -105.23090 | 9031 ft | 202 kts | 173° |
| 2026-05-05 14:27 | 55.00321 | -105.22861 | 9028 ft | 202 kts | 173° |
| 2026-05-05 14:27 | 54.98919 | -105.22633 | 9036 ft | 203 kts | 173° |
| 2026-05-05 14:27 | 54.97516 | -105.22405 | 9036 ft | 203 kts | 173° |
| 2026-05-05 14:27 | 54.96113 | -105.22177 | 9041 ft | 203 kts | 173° |
| 2026-05-05 14:28 | 54.94729 | -105.21953 | 9045 ft | 203 kts | 173° |
| 2026-05-05 14:28 | 54.93325 | -105.21724 | 9048 ft | 203 kts | 173° |
| 2026-05-05 14:28 | 54.91919 | -105.21496 | 9053 ft | 203 kts | 173° |
| 2026-05-05 14:28 | 54.90512 | -105.21269 | 9055 ft | 203 kts | 173° |
| 2026-05-05 14:29 | 54.89105 | -105.21040 | 9055 ft | 203 kts | 173° |
| 2026-05-05 14:29 | 54.87700 | -105.20814 | 9057 ft | 203 kts | 173° |
| 2026-05-05 14:29 | 54.86294 | -105.20586 | 9059 ft | 203 kts | 173° |
| 2026-05-05 14:29 | 54.84889 | -105.20360 | 9065 ft | 203 kts | 173° |
| 2026-05-05 14:30 | 54.83481 | -105.20132 | 9066 ft | 203 kts | 173° |
| 2026-05-05 14:30 | 54.82074 | -105.19905 | 9072 ft | 203 kts | 173° |
| 2026-05-05 14:30 | 54.80667 | -105.19678 | 9073 ft | 203 kts | 173° |
| 2026-05-05 14:30 | 54.79260 | -105.19451 | 9069 ft | 203 kts | 173° |
| 2026-05-05 14:31 | 54.77854 | -105.19225 | 9068 ft | 203 kts | 173° |
| 2026-05-05 14:31 | 54.76445 | -105.18998 | 9068 ft | 203 kts | 173° |
| 2026-05-05 14:31 | 54.75058 | -105.18775 | 9066 ft | 203 kts | 173° |
| 2026-05-05 14:31 | 54.73649 | -105.18548 | 9071 ft | 203 kts | 173° |
| 2026-05-05 14:32 | 54.72244 | -105.18323 | 9069 ft | 203 kts | 173° |
| 2026-05-05 14:32 | 54.70836 | -105.18098 | 9063 ft | 203 kts | 173° |
| 2026-05-05 14:32 | 54.69431 | -105.17873 | 9068 ft | 203 kts | 173° |
| 2026-05-05 14:32 | 54.68027 | -105.17647 | 9065 ft | 203 kts | 173° |
| 2026-05-05 14:33 | 54.66621 | -105.17422 | 9067 ft | 203 kts | 173° |
| 2026-05-05 14:33 | 54.65216 | -105.17197 | 9067 ft | 203 kts | 173° |
| 2026-05-05 14:33 | 54.63810 | -105.16972 | 9063 ft | 203 kts | 173° |
| 2026-05-05 14:33 | 54.62404 | -105.16747 | 9062 ft | 203 kts | 173° |
| 2026-05-05 14:34 | 54.61002 | -105.16523 | 9059 ft | 203 kts | 173° |
| 2026-05-05 14:34 | 54.59599 | -105.16300 | 9060 ft | 203 kts | 173° |
| 2026-05-05 14:34 | 54.58193 | -105.16076 | 9064 ft | 203 kts | 173° |
| 2026-05-05 14:34 | 54.56788 | -105.15852 | 9061 ft | 203 kts | 173° |
| 2026-05-05 14:35 | 54.55382 | -105.15629 | 9062 ft | 203 kts | 173° |
| 2026-05-05 14:35 | 54.53979 | -105.15405 | 9057 ft | 202 kts | 173° |
| 2026-05-05 14:35 | 54.52577 | -105.15181 | 9059 ft | 202 kts | 173° |
| 2026-05-05 14:35 | 54.51175 | -105.14959 | 9055 ft | 202 kts | 173° |
| 2026-05-05 14:36 | 54.49772 | -105.14737 | 9053 ft | 202 kts | 173° |
| 2026-05-05 14:36 | 54.48369 | -105.14513 | 9057 ft | 202 kts | 173° |
| 2026-05-05 14:36 | 54.46967 | -105.14291 | 9054 ft | 202 kts | 173° |
| 2026-05-05 14:36 | 54.45567 | -105.14070 | 9055 ft | 202 kts | 173° |
| 2026-05-05 14:37 | 54.44163 | -105.13848 | 9056 ft | 202 kts | 173° |
| 2026-05-05 14:37 | 54.42780 | -105.13627 | 9056 ft | 202 kts | 174° |
| 2026-05-05 14:37 | 54.41378 | -105.13406 | 9054 ft | 202 kts | 173° |
| 2026-05-05 14:37 | 54.39976 | -105.13186 | 9055 ft | 202 kts | 174° |
| 2026-05-05 14:38 | 54.38574 | -105.12963 | 9048 ft | 202 kts | 173° |
| 2026-05-05 14:38 | 54.37170 | -105.12742 | 9052 ft | 202 kts | 173° |
| 2026-05-05 14:38 | 54.35770 | -105.12521 | 9049 ft | 203 kts | 174° |
| 2026-05-05 14:38 | 54.34363 | -105.12300 | 9052 ft | 203 kts | 173° |
| 2026-05-05 14:39 | 54.32960 | -105.12079 | 9050 ft | 203 kts | 174° |
| 2026-05-05 14:39 | 54.31553 | -105.11858 | 9049 ft | 203 kts | 173° |
| 2026-05-05 14:39 | 54.30151 | -105.11637 | 9049 ft | 202 kts | 174° |
| 2026-05-05 14:39 | 54.28746 | -105.11416 | 9048 ft | 203 kts | 174° |
| 2026-05-05 14:40 | 54.27341 | -105.11196 | 9049 ft | 203 kts | 174° |
| 2026-05-05 14:40 | 54.25942 | -105.10975 | 9045 ft | 203 kts | 173° |
| 2026-05-05 14:40 | 54.24536 | -105.10754 | 9043 ft | 202 kts | 174° |
| 2026-05-05 14:40 | 54.23133 | -105.10536 | 9044 ft | 202 kts | 174° |
| 2026-05-05 14:41 | 54.21732 | -105.10316 | 9044 ft | 202 kts | 173° |
| 2026-05-05 14:41 | 54.20334 | -105.10097 | 9039 ft | 202 kts | 173° |
| 2026-05-05 14:41 | 54.18930 | -105.09877 | 9039 ft | 202 kts | 173° |
| 2026-05-05 14:41 | 54.17548 | -105.09662 | 9035 ft | 202 kts | 174° |
| 2026-05-05 14:42 | 54.16148 | -105.09443 | 9039 ft | 202 kts | 174° |
| 2026-05-05 14:42 | 54.14746 | -105.09223 | 9039 ft | 202 kts | 174° |
| 2026-05-05 14:42 | 54.13346 | -105.09006 | 9038 ft | 202 kts | 174° |
| 2026-05-05 14:42 | 54.11946 | -105.08787 | 9037 ft | 202 kts | 174° |
| 2026-05-05 14:43 | 54.10542 | -105.08568 | 9039 ft | 202 kts | 174° |
| 2026-05-05 14:43 | 54.09145 | -105.08352 | 9039 ft | 202 kts | 174° |
| 2026-05-05 14:43 | 54.07749 | -105.08134 | 9039 ft | 202 kts | 174° |
| 2026-05-05 14:43 | 54.06348 | -105.07916 | 9039 ft | 202 kts | 174° |
| 2026-05-05 14:44 | 54.04952 | -105.07699 | 9033 ft | 202 kts | 174° |
| 2026-05-05 14:44 | 54.03553 | -105.07482 | 9035 ft | 202 kts | 174° |
| 2026-05-05 14:44 | 54.02154 | -105.07265 | 9034 ft | 202 kts | 174° |
| 2026-05-05 14:44 | 54.00755 | -105.07048 | 9033 ft | 202 kts | 174° |
| 2026-05-05 14:45 | 53.99355 | -105.06831 | 9035 ft | 202 kts | 174° |
| 2026-05-05 14:45 | 53.97959 | -105.06614 | 9037 ft | 202 kts | 174° |
| 2026-05-05 14:45 | 53.96558 | -105.06398 | 9024 ft | 202 kts | 174° |
| 2026-05-05 14:45 | 53.95158 | -105.06182 | 9033 ft | 202 kts | 174° |
| 2026-05-05 14:46 | 53.93759 | -105.05966 | 9031 ft | 202 kts | 173° |
| 2026-05-05 14:46 | 53.92361 | -105.05750 | 9029 ft | 202 kts | 173° |
| 2026-05-05 14:46 | 53.90961 | -105.05534 | 9026 ft | 202 kts | 173° |
| 2026-05-05 14:46 | 53.89562 | -105.05317 | 9027 ft | 202 kts | 174° |
| 2026-05-05 14:47 | 53.88182 | -105.05107 | 9027 ft | 202 kts | 174° |
| 2026-05-05 14:47 | 53.86764 | -105.04887 | 9024 ft | 202 kts | 174° |
| 2026-05-05 14:47 | 53.85382 | -105.04674 | 9027 ft | 202 kts | 174° |
| 2026-05-05 14:47 | 53.83982 | -105.04459 | 9023 ft | 202 kts | 174° |
| 2026-05-05 14:48 | 53.82582 | -105.04245 | 9028 ft | 202 kts | 174° |
| 2026-05-05 14:48 | 53.81180 | -105.04028 | 9021 ft | 202 kts | 174° |
| 2026-05-05 14:48 | 53.79778 | -105.03813 | 9024 ft | 202 kts | 174° |
| 2026-05-05 14:48 | 53.78377 | -105.03598 | 9024 ft | 202 kts | 174° |
| 2026-05-05 14:49 | 53.76977 | -105.03384 | 9022 ft | 202 kts | 174° |
| 2026-05-05 14:49 | 53.75577 | -105.03170 | 9022 ft | 202 kts | 174° |
| 2026-05-05 14:49 | 53.74177 | -105.02954 | 9023 ft | 202 kts | 174° |
| 2026-05-05 14:49 | 53.72776 | -105.02741 | 9022 ft | 202 kts | 174° |
| 2026-05-05 14:50 | 53.71378 | -105.02527 | 9021 ft | 202 kts | 174° |
| 2026-05-05 14:50 | 53.69976 | -105.02312 | 9016 ft | 202 kts | 174° |
| 2026-05-05 14:50 | 53.68578 | -105.02100 | 9021 ft | 202 kts | 174° |
| 2026-05-05 14:50 | 53.67176 | -105.01887 | 9016 ft | 202 kts | 174° |
| 2026-05-05 14:51 | 53.65776 | -105.01672 | 9021 ft | 202 kts | 174° |
| 2026-05-05 14:51 | 53.64377 | -105.01458 | 9019 ft | 202 kts | 174° |
| 2026-05-05 14:51 | 53.62973 | -105.01246 | 9011 ft | 202 kts | 174° |
| 2026-05-05 14:51 | 53.61572 | -105.01032 | 9009 ft | 202 kts | 174° |
| 2026-05-05 14:52 | 53.60168 | -105.00818 | 9015 ft | 202 kts | 174° |
| 2026-05-05 14:52 | 53.58782 | -105.00607 | 9012 ft | 202 kts | 174° |
| 2026-05-05 14:52 | 53.57382 | -105.00397 | 9016 ft | 202 kts | 174° |
| 2026-05-05 14:52 | 53.55979 | -105.00182 | 9010 ft | 202 kts | 174° |
| 2026-05-05 14:53 | 53.54577 | -104.99970 | 9013 ft | 202 kts | 174° |
| 2026-05-05 14:53 | 53.53173 | -104.99757 | 9017 ft | 202 kts | 174° |
| 2026-05-05 14:53 | 53.51770 | -104.99545 | 9014 ft | 202 kts | 174° |
| 2026-05-05 14:53 | 53.50370 | -104.99332 | 9015 ft | 202 kts | 174° |
| 2026-05-05 14:54 | 53.48963 | -104.99120 | 9011 ft | 203 kts | 174° |
| 2026-05-05 14:54 | 53.47561 | -104.98908 | 9011 ft | 202 kts | 174° |
| 2026-05-05 14:54 | 53.46159 | -104.98697 | 9012 ft | 202 kts | 174° |
| 2026-05-05 14:54 | 53.44755 | -104.98484 | 9013 ft | 202 kts | 174° |
| 2026-05-05 14:55 | 53.43352 | -104.98272 | 9011 ft | 203 kts | 174° |
| 2026-05-05 14:55 | 53.41952 | -104.98062 | 9011 ft | 202 kts | 174° |
| 2026-05-05 14:55 | 53.40549 | -104.97850 | 9010 ft | 202 kts | 174° |
| 2026-05-05 14:55 | 53.39147 | -104.97639 | 9007 ft | 202 kts | 174° |
| 2026-05-05 14:56 | 53.37745 | -104.97428 | 9008 ft | 203 kts | 174° |
| 2026-05-05 14:56 | 53.36339 | -104.97217 | 9001 ft | 202 kts | 174° |
| 2026-05-05 14:56 | 53.34935 | -104.97005 | 9007 ft | 203 kts | 174° |
| 2026-05-05 14:56 | 53.33527 | -104.96794 | 8999 ft | 203 kts | 174° |
| 2026-05-05 14:57 | 53.32122 | -104.96584 | 8999 ft | 203 kts | 174° |
| 2026-05-05 14:57 | 53.30715 | -104.96373 | 9001 ft | 203 kts | 174° |
| 2026-05-05 14:57 | 53.29307 | -104.96162 | 9004 ft | 203 kts | 174° |
| 2026-05-05 14:57 | 53.27900 | -104.95951 | 9002 ft | 203 kts | 174° |
| 2026-05-05 14:58 | 53.26495 | -104.95741 | 9004 ft | 203 kts | 174° |
| 2026-05-05 14:58 | 53.25089 | -104.95531 | 9001 ft | 203 kts | 174° |
| 2026-05-05 14:58 | 53.23684 | -104.95321 | 9004 ft | 203 kts | 174° |
| 2026-05-05 14:58 | 53.22301 | -104.95114 | 8999 ft | 202 kts | 174° |
| 2026-05-05 14:59 | 53.20896 | -104.94903 | 9002 ft | 203 kts | 174° |
| 2026-05-05 14:59 | 53.19491 | -104.94695 | 9000 ft | 203 kts | 174° |
| 2026-05-05 14:59 | 53.18087 | -104.94486 | 9004 ft | 203 kts | 174° |
| 2026-05-05 14:59 | 53.16680 | -104.94277 | 9000 ft | 203 kts | 174° |
| 2026-05-05 15:00 | 53.15278 | -104.94067 | 9007 ft | 202 kts | 174° |
| 2026-05-05 15:00 | 53.14348 | -104.93929 | 9003 ft | 202 kts | 174° |
| 2026-05-05 15:00 | 53.12472 | -104.93649 | 9003 ft | 202 kts | 174° |
| 2026-05-05 15:00 | 53.11070 | -104.93441 | 9002 ft | 202 kts | 174° |
| 2026-05-05 15:01 | 53.09667 | -104.93234 | 9001 ft | 202 kts | 174° |
| 2026-05-05 15:01 | 53.08265 | -104.93025 | 8998 ft | 202 kts | 174° |
| 2026-05-05 15:01 | 53.06862 | -104.92817 | 8996 ft | 202 kts | 174° |
| 2026-05-05 15:01 | 53.05461 | -104.92609 | 9002 ft | 202 kts | 174° |
| 2026-05-05 15:02 | 53.04061 | -104.92402 | 9001 ft | 202 kts | 174° |
| 2026-05-05 15:02 | 53.02660 | -104.92194 | 8992 ft | 202 kts | 174° |
| 2026-05-05 15:02 | 53.01259 | -104.91987 | 8929 ft | 204 kts | 174° |
| 2026-05-05 15:02 | 52.99865 | -104.91788 | 8545 ft | 198 kts | 174° |
| 2026-05-05 15:03 | 52.98498 | -104.91585 | 8178 ft | 196 kts | 174° |
| 2026-05-05 15:03 | 52.97140 | -104.91385 | 7805 ft | 195 kts | 175° |
| 2026-05-05 15:03 | 52.95824 | -104.91285 | 7439 ft | 189 kts | 178° |
| 2026-05-05 15:03 | 52.94520 | -104.91208 | 7075 ft | 187 kts | 178° |
| 2026-05-05 15:04 | 52.93228 | -104.91127 | 6718 ft | 186 kts | 178° |
| 2026-05-05 15:04 | 52.91933 | -104.91045 | 6302 ft | 187 kts | 178° |
| 2026-05-05 15:04 | 52.90637 | -104.90956 | 5870 ft | 186 kts | 178° |
| 2026-05-05 15:04 | 52.89345 | -104.90855 | 5443 ft | 185 kts | 178° |
| 2026-05-05 15:05 | 52.86802 | -104.90636 | 4590 ft | 188 kts | 178° |
| 2026-05-05 15:05 | 52.85480 | -104.90521 | 4170 ft | 191 kts | 181° |
| 2026-05-05 15:05 | 52.84188 | -104.90911 | 3753 ft | 189 kts | 199° |
| 2026-05-05 15:06 | 52.82929 | -104.91516 | 3330 ft | 187 kts | 199° |
| 2026-05-05 15:06 | 52.82123 | -104.91897 | 3051 ft | 177 kts | 199° |
| 2026-05-05 15:06 | 52.81016 | -104.92386 | 2989 ft | 156 kts | 197° |
| 2026-05-05 15:06 | 52.79978 | -104.92759 | 2990 ft | 150 kts | 194° |
| 2026-05-05 15:07 | 52.78608 | -104.93093 | 2900 ft | 151 kts | 190° |
| 2026-05-05 15:07 | 52.77562 | -104.93293 | 2801 ft | 151 kts | 186° |
| 2026-05-05 15:07 | 52.76868 | -104.93379 | 2798 ft | 146 kts | 187° |
| 2026-05-05 15:07 | 52.75864 | -104.93497 | 2791 ft | 143 kts | 187° |
| 2026-05-05 15:08 | 52.74881 | -104.93601 | 2789 ft | 141 kts | 184° |
| 2026-05-05 15:08 | 52.73918 | -104.93609 | 2792 ft | 140 kts | 179° |
| 2026-05-05 15:08 | 52.72943 | -104.93523 | 2808 ft | 140 kts | 179° |
| 2026-05-05 15:08 | 52.71994 | -104.93480 | 2806 ft | 133 kts | 181° |
| 2026-05-05 15:09 | 52.71083 | -104.93471 | 2803 ft | 129 kts | 181° |
| 2026-05-05 15:09 | 52.70184 | -104.93449 | 2792 ft | 129 kts | 181° |
| 2026-05-05 15:09 | 52.69290 | -104.93442 | 2787 ft | 128 kts | 182° |
| 2026-05-05 15:09 | 52.68406 | -104.93377 | 2792 ft | 127 kts | 171° |
| 2026-05-05 15:10 | 52.67561 | -104.92999 | 2787 ft | 126 kts | 151° |
| 2026-05-05 15:10 | 52.66870 | -104.92157 | 2796 ft | 123 kts | 129° |
| 2026-05-05 15:10 | 52.66242 | -104.91194 | 2790 ft | 124 kts | 134° |
| 2026-05-05 15:10 | 52.65605 | -104.90247 | 2793 ft | 124 kts | 134° |
| 2026-05-05 15:11 | 52.64937 | -104.89225 | 2558 ft | 135 kts | 139° |
| 2026-05-05 15:11 | 52.64138 | -104.88695 | 2345 ft | 125 kts | 182° |
| 2026-05-05 15:11 | 52.63276 | -104.88916 | 1999 ft | 125 kts | 200° |
| 2026-05-05 15:11 | 52.62471 | -104.89190 | 2390 ft | 111 kts | 162° |
| 2026-05-05 15:12 | 52.62283 | -104.88212 | 2546 ft | 101 kts | 28° |
| 2026-05-05 15:12 | 52.62990 | -104.87752 | 2430 ft | 120 kts | 6° |
| 2026-05-05 15:12 | 52.63768 | -104.87844 | 2009 ft | 93 kts | 352° |
| 2026-05-05 15:12 | 52.64298 | -104.87954 | 1784 ft | 56 kts | 351° |
| 2026-05-05 15:13 | 52.64451 | -104.87983 | 1785 ft | 12 kts | 355° |
| 2026-05-05 15:13 | 52.64537 | -104.88001 | 1788 ft | 10 kts | 2° |
| 2026-05-05 15:13 | 52.64565 | -104.87963 | 1789 ft | 5 kts | 58° |
| 2026-05-05 15:13 | 52.64567 | -104.87958 | 1790 ft | 0 kts | 35° |